sensor_id;sensor_type;location;lat;lon;timestamp;pressure;altitude;pressure_sealevel;temperature;humidity
66021;BME280;52789;59.980;30.346;2023-04-05T00:00:07;102298.56;;;0.86;100.00
66021;BME280;52789;59.980;30.346;2023-04-05T00:02:34;102290.59;;;0.89;100.00
66021;BME280;52789;59.980;30.346;2023-04-05T00:05:01;102294.13;;;0.88;100.00
66021;BME280;52789;59.980;30.346;2023-04-05T00:07:28;102294.00;;;0.91;100.00
66021;BME280;52789;59.980;30.346;2023-04-05T00:09:53;102307.06;;;0.93;100.00
66021;BME280;52789;59.980;30.346;2023-04-05T00:12:19;102309.81;;;0.90;100.00
66021;BME280;52789;59.980;30.346;2023-04-05T00:14:45;102314.28;;;0.88;100.00
66021;BME280;52789;59.980;30.346;2023-04-05T00:17:10;102312.38;;;0.91;100.00
66021;BME280;52789;59.980;30.346;2023-04-05T00:19:44;102305.94;;;0.99;100.00
66021;BME280;52789;59.980;30.346;2023-04-05T00:22:09;102306.72;;;1.01;100.00
66021;BME280;52789;59.980;30.346;2023-04-05T00:24:35;102315.78;;;0.93;100.00
66021;BME280;52789;59.980;30.346;2023-04-05T00:27:03;102311.59;;;0.89;100.00
66021;BME280;52789;59.980;30.346;2023-04-05T00:29:28;102335.06;;;0.92;100.00
66021;BME280;52789;59.980;30.346;2023-04-05T00:31:54;102329.81;;;0.92;100.00
66021;BME280;52789;59.980;30.346;2023-04-05T00:34:20;102327.06;;;0.96;100.00
66021;BME280;52789;59.980;30.346;2023-04-05T00:36:45;102329.56;;;0.99;100.00
66021;BME280;52789;59.980;30.346;2023-04-05T00:39:11;102336.38;;;1.03;100.00
66021;BME280;52789;59.980;30.346;2023-04-05T00:41:36;102326.03;;;1.00;100.00
66021;BME280;52789;59.980;30.346;2023-04-05T00:44:02;102327.00;;;0.97;100.00
66021;BME280;52789;59.980;30.346;2023-04-05T00:46:28;102327.06;;;0.96;100.00
66021;BME280;52789;59.980;30.346;2023-04-05T00:48:53;102326.94;;;0.99;100.00
66021;BME280;52789;59.980;30.346;2023-04-05T00:51:19;102323.47;;;0.98;100.00
66021;BME280;52789;59.980;30.346;2023-04-05T00:53:44;102327.06;;;0.96;100.00
66021;BME280;52789;59.980;30.346;2023-04-05T00:56:11;102331.53;;;0.93;100.00
66021;BME280;52789;59.980;30.346;2023-04-05T00:58:38;102319.97;;;0.98;100.00
66021;BME280;52789;59.980;30.346;2023-04-05T01:01:38;102320.91;;;0.97;100.00
66021;BME280;52789;59.980;30.346;2023-04-05T01:03:58;102323.16;;;0.84;100.00
66021;BME280;52789;59.980;30.346;2023-04-05T01:06:35;102319.75;;;0.82;100.00
66021;BME280;52789;59.980;30.346;2023-04-05T01:09:11;102324.38;;;0.75;100.00
66021;BME280;52789;59.980;30.346;2023-04-05T01:11:38;102322.50;;;0.79;100.00
66021;BME280;52789;59.980;30.346;2023-04-05T01:14:04;102319.94;;;0.77;100.00
66021;BME280;52789;59.980;30.346;2023-04-05T01:16:30;102324.19;;;0.80;100.00
66021;BME280;52789;59.980;30.346;2023-04-05T01:18:55;102320.53;;;0.84;100.00
66021;BME280;52789;59.980;30.346;2023-04-05T01:31:59;102345.03;;;0.83;100.00
66021;BME280;52789;59.980;30.346;2023-04-05T01:36:56;102341.34;;;0.88;100.00
66021;BME280;52789;59.980;30.346;2023-04-05T01:39:24;102342.13;;;0.90;100.00
66021;BME280;52789;59.980;30.346;2023-04-05T01:41:50;102345.69;;;0.89;100.00
66021;BME280;52789;59.980;30.346;2023-04-05T01:44:16;102345.69;;;0.89;100.00
66021;BME280;52789;59.980;30.346;2023-04-05T01:46:41;102347.50;;;0.87;100.00
66021;BME280;52789;59.980;30.346;2023-04-05T01:49:06;102347.88;;;0.78;100.00
66021;BME280;52789;59.980;30.346;2023-04-05T01:51:32;102350.59;;;0.75;100.00
66021;BME280;52789;59.980;30.346;2023-04-05T01:53:57;102339.25;;;0.75;100.00
66021;BME280;52789;59.980;30.346;2023-04-05T01:56:22;102349.75;;;0.75;100.00
66021;BME280;52789;59.980;30.346;2023-04-05T01:58:50;102356.03;;;0.71;100.00
66021;BME280;52789;59.980;30.346;2023-04-05T02:01:16;102361.28;;;0.71;100.00
66021;BME280;52789;59.980;30.346;2023-04-05T02:03:41;102350.78;;;0.71;100.00
66021;BME280;52789;59.980;30.346;2023-04-05T02:06:07;102359.31;;;0.76;100.00
66021;BME280;52789;59.980;30.346;2023-04-05T02:08:32;102355.19;;;0.70;100.00
66021;BME280;52789;59.980;30.346;2023-04-05T02:10:57;102349.03;;;0.71;100.00
66021;BME280;52789;59.980;30.346;2023-04-05T02:13:23;102350.91;;;0.68;100.00
66021;BME280;52789;59.980;30.346;2023-04-05T02:15:50;102354.47;;;0.67;100.00
66021;BME280;52789;59.980;30.346;2023-04-05T02:18:15;102348.97;;;0.73;100.00
66021;BME280;52789;59.980;30.346;2023-04-05T02:20:49;102351.53;;;0.74;100.00
66021;BME280;52789;59.980;30.346;2023-04-05T02:23:15;102342.13;;;0.69;100.00
66021;BME280;52789;59.980;30.346;2023-04-05T02:25:41;102353.59;;;0.66;100.00
66021;BME280;52789;59.980;30.346;2023-04-05T02:28:06;102339.69;;;0.64;100.00
66021;BME280;52789;59.980;30.346;2023-04-05T02:30:31;102350.06;;;0.67;100.00
66021;BME280;52789;59.980;30.346;2023-04-05T02:32:57;102343.13;;;0.66;100.00
66021;BME280;52789;59.980;30.346;2023-04-05T02:35:22;102359.03;;;0.61;100.00
66021;BME280;52789;59.980;30.346;2023-04-05T02:37:48;102343.25;;;0.63;100.00
66021;BME280;52789;59.980;30.346;2023-04-05T02:40:13;102336.28;;;0.62;100.00
66021;BME280;52789;59.980;30.346;2023-04-05T02:42:39;102353.94;;;0.57;100.00
66021;BME280;52789;59.980;30.346;2023-04-05T02:45:05;102353.09;;;0.56;100.00
66021;BME280;52789;59.980;30.346;2023-04-05T02:47:32;102345.28;;;0.55;100.00
66021;BME280;52789;59.980;30.346;2023-04-05T02:49:57;102350.53;;;0.55;100.00
66021;BME280;52789;59.980;30.346;2023-04-05T02:52:23;102346.91;;;0.59;100.00
66021;BME280;52789;59.980;30.346;2023-04-05T02:54:48;102348.53;;;0.61;100.00
66021;BME280;52789;59.980;30.346;2023-04-05T02:57:14;102341.41;;;0.65;100.00
66021;BME280;52789;59.980;30.346;2023-04-05T02:59:40;102344.81;;;0.67;100.00
66021;BME280;52789;59.980;30.346;2023-04-05T03:02:07;102335.91;;;0.71;100.00
66021;BME280;52789;59.980;30.346;2023-04-05T03:04:32;102342.00;;;0.72;100.00
66021;BME280;52789;59.980;30.346;2023-04-05T03:07:01;102339.31;;;0.73;100.00
66021;BME280;52789;59.980;30.346;2023-04-05T03:09:27;102327.25;;;0.69;100.00
66021;BME280;52789;59.980;30.346;2023-04-05T03:11:57;102334.47;;;0.64;100.00
66021;BME280;52789;59.980;30.346;2023-04-05T03:14:22;102339.69;;;0.64;100.00
66021;BME280;52789;59.980;30.346;2023-04-05T03:16:48;102341.34;;;0.67;100.00
66021;BME280;52789;59.980;30.346;2023-04-05T03:19:14;102351.84;;;0.67;100.00
66021;BME280;52789;59.980;30.346;2023-04-05T03:21:41;102352.38;;;0.75;100.00
66021;BME280;52789;59.980;30.346;2023-04-05T03:24:06;102354.16;;;0.74;100.00
66021;BME280;52789;59.980;30.346;2023-04-05T03:26:31;102356.84;;;0.73;100.00
66021;BME280;52789;59.980;30.346;2023-04-05T03:28:57;102355.91;;;0.74;100.00
66021;BME280;52789;59.980;30.346;2023-04-05T03:31:22;102353.28;;;0.74;100.00
66021;BME280;52789;59.980;30.346;2023-04-05T03:33:47;102347.00;;;0.78;100.00
66021;BME280;52789;59.980;30.346;2023-04-05T03:36:13;102345.38;;;0.75;100.00
66021;BME280;52789;59.980;30.346;2023-04-05T03:38:42;102353.34;;;0.72;100.00
66021;BME280;52789;59.980;30.346;2023-04-05T03:41:07;102356.03;;;0.71;100.00
66021;BME280;52789;59.980;30.346;2023-04-05T03:43:33;102360.56;;;0.67;100.00
66021;BME280;52789;59.980;30.346;2023-04-05T03:45:58;102358.59;;;0.72;100.00
66021;BME280;52789;59.980;30.346;2023-04-05T03:48:23;102364.81;;;0.70;100.00
66021;BME280;52789;59.980;30.346;2023-04-05T03:50:49;102365.66;;;0.70;100.00
66021;BME280;52789;59.980;30.346;2023-04-05T03:53:14;102364.16;;;0.65;100.00
66021;BME280;52789;59.980;30.346;2023-04-05T03:55:43;102371.03;;;0.67;100.00
66021;BME280;52789;59.980;30.346;2023-04-05T03:58:13;102368.22;;;0.72;100.00
66021;BME280;52789;59.980;30.346;2023-04-05T04:00:39;102372.44;;;0.76;100.00
66021;BME280;52789;59.980;30.346;2023-04-05T04:03:05;102380.13;;;0.80;100.00
66021;BME280;52789;59.980;30.346;2023-04-05T04:05:30;102385.31;;;0.82;100.00
66021;BME280;52789;59.980;30.346;2023-04-05T04:08:20;102383.47;;;0.84;100.00
66021;BME280;52789;59.980;30.346;2023-04-05T04:10:46;102375.44;;;0.88;100.00
66021;BME280;52789;59.980;30.346;2023-04-05T04:13:11;102379.94;;;0.85;100.00
66021;BME280;52789;59.980;30.346;2023-04-05T04:15:36;102392.38;;;0.80;100.00
66021;BME280;52789;59.980;30.346;2023-04-05T04:18:02;102385.25;;;0.83;100.00
66021;BME280;52789;59.980;30.346;2023-04-05T04:20:27;102386.88;;;0.86;100.00
66021;BME280;52789;59.980;30.346;2023-04-05T04:22:52;102387.53;;;0.92;100.00
66021;BME280;52789;59.980;30.346;2023-04-05T04:25:18;102396.19;;;0.95;100.00
66021;BME280;52789;59.980;30.346;2023-04-05T04:27:44;102404.72;;;1.00;100.00
66021;BME280;52789;59.980;30.346;2023-04-05T04:30:13;102415.75;;;1.08;100.00
66021;BME280;52789;59.980;30.346;2023-04-05T04:32:39;102422.72;;;1.09;100.00
66021;BME280;52789;59.980;30.346;2023-04-05T04:35:21;102418.25;;;1.11;100.00
66021;BME280;52789;59.980;30.346;2023-04-05T04:38:04;102420.81;;;1.12;100.00
66021;BME280;52789;59.980;30.346;2023-04-05T04:40:31;102422.84;;;1.06;100.00
66021;BME280;52789;59.980;30.346;2023-04-05T04:43:03;102420.22;;;1.06;100.00
66021;BME280;52789;59.980;30.346;2023-04-05T04:45:28;102419.97;;;1.12;100.00
66021;BME280;52789;59.980;30.346;2023-04-05T04:47:58;102408.38;;;1.17;100.00
66021;BME280;52789;59.980;30.346;2023-04-05T04:50:25;102408.38;;;1.17;100.00
66021;BME280;52789;59.980;30.346;2023-04-05T04:52:51;102419.63;;;1.21;100.00
66021;BME280;52789;59.980;30.346;2023-04-05T04:55:16;102427.63;;;1.18;100.00
66021;BME280;52789;59.980;30.346;2023-04-05T04:57:42;102425.84;;;1.18;100.00
66021;BME280;52789;59.980;30.346;2023-04-05T05:00:08;102430.13;;;1.21;100.00
66021;BME280;52789;59.980;30.346;2023-04-05T05:02:37;102437.31;;;1.16;100.00
66021;BME280;52789;59.980;30.346;2023-04-05T05:05:03;102440.94;;;1.12;100.00
66021;BME280;52789;59.980;30.346;2023-04-05T05:07:28;102452.31;;;1.12;100.00
66021;BME280;52789;59.980;30.346;2023-04-05T05:09:53;102450.38;;;1.17;100.00
66021;BME280;52789;59.980;30.346;2023-04-05T05:12:20;102449.16;;;1.26;100.00
66021;BME280;52789;59.980;30.346;2023-04-05T05:14:45;102457.44;;;1.37;100.00
66021;BME280;52789;59.980;30.346;2023-04-05T05:17:10;102457.44;;;1.37;100.00
66021;BME280;52789;59.980;30.346;2023-04-05T05:19:36;102465.69;;;1.28;100.00
66021;BME280;52789;59.980;30.346;2023-04-05T05:22:01;102470.94;;;1.28;100.00
66021;BME280;52789;59.980;30.346;2023-04-05T05:24:26;102474.59;;;1.24;100.00
66021;BME280;52789;59.980;30.346;2023-04-05T05:26:51;102476.31;;;1.25;100.00
66021;BME280;52789;59.980;30.346;2023-04-05T05:29:17;102481.97;;;1.36;100.00
66021;BME280;52789;59.980;30.346;2023-04-05T05:31:42;102478.94;;;1.47;100.00
66021;BME280;52789;59.980;30.346;2023-04-05T05:34:07;102492.13;;;1.45;100.00
66021;BME280;52789;59.980;30.346;2023-04-05T05:36:33;102492.84;;;1.49;100.00
66021;BME280;52789;59.980;30.346;2023-04-05T05:38:59;102492.13;;;1.45;100.00
66021;BME280;52789;59.980;30.346;2023-04-05T05:41:24;102495.53;;;1.47;100.00
66021;BME280;52789;59.980;30.346;2023-04-05T05:43:49;102481.84;;;1.39;100.00
66021;BME280;52789;59.980;30.346;2023-04-05T05:46:15;102495.75;;;1.41;100.00
66021;BME280;52789;59.980;30.346;2023-04-05T05:48:40;102497.38;;;1.45;100.00
66021;BME280;52789;59.980;30.346;2023-04-05T05:51:06;102499.81;;;1.50;100.00
66021;BME280;52789;59.980;30.346;2023-04-05T05:53:37;102499.38;;;1.61;100.00
66021;BME280;52789;59.980;30.346;2023-04-05T05:56:03;102487.56;;;1.71;100.00
66021;BME280;52789;59.980;30.346;2023-04-05T05:58:28;102497.28;;;1.69;100.00
66021;BME280;52789;59.980;30.346;2023-04-05T06:00:53;102492.88;;;1.69;100.00
66021;BME280;52789;59.980;30.346;2023-04-05T06:03:24;102489.81;;;1.80;100.00
66021;BME280;52789;59.980;30.346;2023-04-05T06:05:58;102482.72;;;1.82;100.00
66021;BME280;52789;59.980;30.346;2023-04-05T06:08:27;102490.34;;;1.88;100.00
66021;BME280;52789;59.980;30.346;2023-04-05T06:10:52;102485.81;;;1.92;100.00
66021;BME280;52789;59.980;30.346;2023-04-05T06:13:18;102489.72;;;2.03;100.00
66021;BME280;52789;59.980;30.346;2023-04-05T06:15:43;102499.38;;;2.03;100.00
66021;BME280;52789;59.980;30.346;2023-04-05T06:18:09;102497.59;;;2.03;100.00
66021;BME280;52789;59.980;30.346;2023-04-05T06:20:34;102501.38;;;1.96;100.00
66021;BME280;52789;59.980;30.346;2023-04-05T06:23:04;102501.44;;;1.95;100.00
66021;BME280;52789;59.980;30.346;2023-04-05T06:25:30;102497.75;;;1.99;100.00
66021;BME280;52789;59.980;30.346;2023-04-05T06:27:55;102505.59;;;2.00;100.00
66021;BME280;52789;59.980;30.346;2023-04-05T06:30:20;102504.66;;;2.01;100.00
66021;BME280;52789;59.980;30.346;2023-04-05T06:32:46;102512.69;;;1.98;100.00
66021;BME280;52789;59.980;30.346;2023-04-05T06:35:12;102504.63;;;2.03;100.00
66021;BME280;52789;59.980;30.346;2023-04-05T06:37:38;102509.63;;;2.09;100.00
66021;BME280;52789;59.980;30.346;2023-04-05T06:40:12;102502.31;;;2.15;100.00
66021;BME280;52789;59.980;30.346;2023-04-05T06:42:46;102504.22;;;2.12;100.00
66021;BME280;52789;59.980;30.346;2023-04-05T06:45:12;102508.34;;;2.17;100.00
66021;BME280;52789;59.980;30.346;2023-04-05T06:47:37;102502.63;;;2.28;100.00
66021;BME280;52789;59.980;30.346;2023-04-05T06:50:03;102503.03;;;2.39;100.00
66021;BME280;52789;59.980;30.346;2023-04-05T06:52:29;102501.84;;;2.46;100.00
66021;BME280;52789;59.980;30.346;2023-04-05T06:54:54;102503.97;;;2.57;100.00
66021;BME280;52789;59.980;30.346;2023-04-05T06:57:20;102509.63;;;2.68;100.00
66021;BME280;52789;59.980;30.346;2023-04-05T06:59:46;102510.75;;;2.82;100.00
66021;BME280;52789;59.980;30.346;2023-04-05T07:02:11;102512.25;;;2.87;100.00
66021;BME280;52789;59.980;30.346;2023-04-05T07:04:37;102512.78;;;2.95;100.00
66021;BME280;52789;59.980;30.346;2023-04-05T07:07:04;102511.34;;;3.07;100.00
66021;BME280;52789;59.980;30.346;2023-04-05T07:09:33;102516.31;;;3.13;99.61
66021;BME280;52789;59.980;30.346;2023-04-05T07:11:59;102512.34;;;3.04;99.81
66021;BME280;52789;59.980;30.346;2023-04-05T07:14:25;102518.25;;;3.09;99.59
66021;BME280;52789;59.980;30.346;2023-04-05T07:16:50;102515.31;;;3.16;99.41
66021;BME280;52789;59.980;30.346;2023-04-05T07:19:19;102521.44;;;3.16;99.54
66021;BME280;52789;59.980;30.346;2023-04-05T07:21:44;102517.47;;;3.26;99.19
66021;BME280;52789;59.980;30.346;2023-04-05T07:24:09;102528.56;;;3.33;98.58
66021;BME280;52789;59.980;30.346;2023-04-05T07:26:35;102518.56;;;3.39;98.34
66021;BME280;52789;59.980;30.346;2023-04-05T07:29:01;102522.75;;;3.43;98.05
66021;BME280;52789;59.980;30.346;2023-04-05T07:31:27;102515.28;;;3.53;97.75
66021;BME280;52789;59.980;30.346;2023-04-05T07:33:52;102516.59;;;3.62;96.64
66021;BME280;52789;59.980;30.346;2023-04-05T07:36:18;102521.06;;;3.79;96.88
66021;BME280;52789;59.980;30.346;2023-04-05T07:38:43;102517.88;;;3.89;96.22
66021;BME280;52789;59.980;30.346;2023-04-05T07:41:09;102519.13;;;4.17;95.89
66021;BME280;52789;59.980;30.346;2023-04-05T07:43:34;102522.53;;;4.36;94.58
66021;BME280;52789;59.980;30.346;2023-04-05T07:46:00;102523.75;;;4.46;92.84
66021;BME280;52789;59.980;30.346;2023-04-05T07:48:26;102529.88;;;4.29;92.94
66021;BME280;52789;59.980;30.346;2023-04-05T07:50:54;102526.19;;;4.16;94.02
66021;BME280;52789;59.980;30.346;2023-04-05T07:53:20;102515.09;;;4.10;94.86
66021;BME280;52789;59.980;30.346;2023-04-05T07:55:45;102528.44;;;3.89;95.29
66021;BME280;52789;59.980;30.346;2023-04-05T07:58:11;102527.03;;;3.82;96.30
66021;BME280;52789;59.980;30.346;2023-04-05T08:00:36;102529.22;;;4.09;95.99
66021;BME280;52789;59.980;30.346;2023-04-05T08:03:02;102526.97;;;4.18;94.50
66021;BME280;52789;59.980;30.346;2023-04-05T08:05:29;102515.41;;;4.38;93.66
66021;BME280;52789;59.980;30.346;2023-04-05T08:07:55;102525.88;;;4.40;93.16
66021;BME280;52789;59.980;30.346;2023-04-05T08:10:22;102515.47;;;4.37;93.20
66021;BME280;52789;59.980;30.346;2023-04-05T08:12:48;102519.53;;;4.59;93.45
66021;BME280;52789;59.980;30.346;2023-04-05T08:15:13;102524.13;;;4.56;92.76
66021;BME280;52789;59.980;30.346;2023-04-05T08:17:38;102530.31;;;4.55;92.63
66021;BME280;52789;59.980;30.346;2023-04-05T08:20:04;102523.59;;;4.49;92.92
66021;BME280;52789;59.980;30.346;2023-04-05T08:22:30;102522.97;;;4.44;93.03
66021;BME280;52789;59.980;30.346;2023-04-05T08:24:55;102539.59;;;4.46;93.15
66021;BME280;52789;59.980;30.346;2023-04-05T08:27:20;102528.78;;;4.51;92.69
66021;BME280;52789;59.980;30.346;2023-04-05T08:29:46;102528.53;;;4.55;92.73
66021;BME280;52789;59.980;30.346;2023-04-05T08:32:11;102526.50;;;4.60;92.97
66021;BME280;52789;59.980;30.346;2023-04-05T08:34:37;102525.66;;;4.60;92.44
66021;BME280;52789;59.980;30.346;2023-04-05T08:37:02;102533.34;;;4.64;92.17
66021;BME280;52789;59.980;30.346;2023-04-05T08:39:27;102527.41;;;4.77;91.97
66021;BME280;52789;59.980;30.346;2023-04-05T08:42:02;102530.31;;;4.88;91.47
66021;BME280;52789;59.980;30.346;2023-04-05T08:44:29;102534.94;;;5.00;91.23
66021;BME280;52789;59.980;30.346;2023-04-05T08:46:55;102549.94;;;5.15;90.95
66021;BME280;52789;59.980;30.346;2023-04-05T08:49:22;102554.53;;;5.12;89.99
66021;BME280;52789;59.980;30.346;2023-04-05T08:51:47;102531.53;;;4.98;91.04
66021;BME280;52789;59.980;30.346;2023-04-05T08:54:12;102537.25;;;5.06;90.46
66021;BME280;52789;59.980;30.346;2023-04-05T08:56:38;102546.50;;;4.82;91.03
66021;BME280;52789;59.980;30.346;2023-04-05T08:59:07;102558.41;;;4.89;91.39
66021;BME280;52789;59.980;30.346;2023-04-05T09:01:38;102550.63;;;5.03;91.52
66021;BME280;52789;59.980;30.346;2023-04-05T09:04:05;102560.25;;;5.04;90.19
66021;BME280;52789;59.980;30.346;2023-04-05T09:06:31;102560.94;;;4.92;90.46
66021;BME280;52789;59.980;30.346;2023-04-05T09:08:56;102567.56;;;4.99;90.98
66021;BME280;52789;59.980;30.346;2023-04-05T09:11:22;102570.69;;;4.90;91.54
66021;BME280;52789;59.980;30.346;2023-04-05T09:13:48;102565.25;;;4.93;91.46
66021;BME280;52789;59.980;30.346;2023-04-05T09:16:13;102569.09;;;5.03;91.01
66021;BME280;52789;59.980;30.346;2023-04-05T09:18:40;102560.84;;;5.09;90.19
66021;BME280;52789;59.980;30.346;2023-04-05T09:21:05;102571.28;;;5.28;89.94
66021;BME280;52789;59.980;30.346;2023-04-05T09:23:32;102569.47;;;5.28;89.54
66021;BME280;52789;59.980;30.346;2023-04-05T09:25:58;102571.78;;;5.35;89.92
66021;BME280;52789;59.980;30.346;2023-04-05T09:28:28;102572.47;;;5.22;89.33
66021;BME280;52789;59.980;30.346;2023-04-05T09:31:03;102569.19;;;5.17;89.51
66021;BME280;52789;59.980;30.346;2023-04-05T09:33:29;102563.59;;;5.23;89.71
66021;BME280;52789;59.980;30.346;2023-04-05T09:35:54;102576.72;;;5.41;89.57
66021;BME280;52789;59.980;30.346;2023-04-05T09:38:20;102572.78;;;5.48;88.54
66021;BME280;52789;59.980;30.346;2023-04-05T09:41:07;102574.00;;;5.42;89.31
66021;BME280;52789;59.980;30.346;2023-04-05T09:43:39;102572.66;;;5.51;88.60
66021;BME280;52789;59.980;30.346;2023-04-05T09:46:04;102569.97;;;5.67;87.71
66021;BME280;52789;59.980;30.346;2023-04-05T09:48:46;102574.25;;;5.69;88.17
66021;BME280;52789;59.980;30.346;2023-04-05T09:51:12;102578.94;;;5.64;87.77
66021;BME280;52789;59.980;30.346;2023-04-05T09:53:39;102581.16;;;5.56;88.37
66021;BME280;52789;59.980;30.346;2023-04-05T09:56:20;102580.63;;;5.65;88.34
66021;BME280;52789;59.980;30.346;2023-04-05T09:58:45;102584.53;;;5.74;87.98
66021;BME280;52789;59.980;30.346;2023-04-05T10:01:14;102589.50;;;5.80;87.75
66021;BME280;52789;59.980;30.346;2023-04-05T10:03:46;102586.84;;;5.96;87.64
66021;BME280;52789;59.980;30.346;2023-04-05T10:06:13;102589.69;;;5.93;87.04
66021;BME280;52789;59.980;30.346;2023-04-05T10:08:39;102587.81;;;5.95;87.27
66021;BME280;52789;59.980;30.346;2023-04-05T10:11:05;102600.75;;;5.99;87.30
66021;BME280;52789;59.980;30.346;2023-04-05T10:13:30;102609.63;;;5.98;86.23
66021;BME280;52789;59.980;30.346;2023-04-05T10:15:56;102600.59;;;5.86;87.16
66021;BME280;52789;59.980;30.346;2023-04-05T10:18:23;102602.16;;;5.90;87.53
66021;BME280;52789;59.980;30.346;2023-04-05T10:20:53;102614.50;;;5.90;87.20
66021;BME280;52789;59.980;30.346;2023-04-05T10:23:26;102599.16;;;5.97;87.15
66021;BME280;52789;59.980;30.346;2023-04-05T10:28:33;102618.63;;;6.26;86.40
66021;BME280;52789;59.980;30.346;2023-04-05T10:33:44;102604.41;;;6.42;86.05
66021;BME280;52789;59.980;30.346;2023-04-05T10:41:13;102611.34;;;5.99;85.85
66021;BME280;52789;59.980;30.346;2023-04-05T10:43:39;102615.69;;;6.00;87.07
66021;BME280;52789;59.980;30.346;2023-04-05T10:46:05;102605.78;;;6.04;87.29
66021;BME280;52789;59.980;30.346;2023-04-05T10:48:44;102615.19;;;6.09;87.10
66021;BME280;52789;59.980;30.346;2023-04-05T10:51:13;102614.94;;;6.28;86.39
66021;BME280;52789;59.980;30.346;2023-04-05T10:53:39;102615.94;;;6.41;85.57
66021;BME280;52789;59.980;30.346;2023-04-05T10:56:05;102617.56;;;6.58;85.45
66021;BME280;52789;59.980;30.346;2023-04-05T10:58:30;102621.66;;;6.64;85.23
66021;BME280;52789;59.980;30.346;2023-04-05T11:00:56;102626.59;;;6.70;85.02
66021;BME280;52789;59.980;30.346;2023-04-05T11:03:43;102630.00;;;6.72;84.35
66021;BME280;52789;59.980;30.346;2023-04-05T11:06:30;102622.25;;;6.83;84.95
66021;BME280;52789;59.980;30.346;2023-04-05T11:08:59;102623.34;;;6.65;84.00
66021;BME280;52789;59.980;30.346;2023-04-05T11:11:25;102625.47;;;6.74;84.38
66021;BME280;52789;59.980;30.346;2023-04-05T11:13:55;102632.13;;;6.51;84.51
66021;BME280;52789;59.980;30.346;2023-04-05T11:16:21;102640.47;;;6.29;86.07
66021;BME280;52789;59.980;30.346;2023-04-05T11:18:47;102634.03;;;6.33;85.65
66021;BME280;52789;59.980;30.346;2023-04-05T11:21:25;102643.34;;;6.40;86.06
66021;BME280;52789;59.980;30.346;2023-04-05T11:26:29;102640.88;;;6.37;85.50
66021;BME280;52789;59.980;30.346;2023-04-05T11:28:56;102630.97;;;6.41;84.94
66021;BME280;52789;59.980;30.346;2023-04-05T11:31:22;102646.47;;;6.17;86.01
66021;BME280;52789;59.980;30.346;2023-04-05T11:33:54;102642.69;;;6.21;86.99
66021;BME280;52789;59.980;30.346;2023-04-05T11:36:33;102644.50;;;6.50;86.27
66021;BME280;52789;59.980;30.346;2023-04-05T11:41:43;102651.91;;;6.60;85.25
66021;BME280;52789;59.980;30.346;2023-04-05T11:44:12;102650.25;;;6.73;85.04
66021;BME280;52789;59.980;30.346;2023-04-05T11:46:37;102656.69;;;6.83;84.21
66021;BME280;52789;59.980;30.346;2023-04-05T11:49:03;102658.38;;;6.70;84.58
66021;BME280;52789;59.980;30.346;2023-04-05T11:51:28;102655.22;;;6.63;85.28
66021;BME280;52789;59.980;30.346;2023-04-05T11:53:54;102659.53;;;6.50;85.29
66021;BME280;52789;59.980;30.346;2023-04-05T11:56:20;102663.25;;;6.32;85.74
66021;BME280;52789;59.980;30.346;2023-04-05T11:58:45;102660.88;;;6.27;86.52
66021;BME280;52789;59.980;30.346;2023-04-05T12:01:10;102663.50;;;6.27;87.34
66021;BME280;52789;59.980;30.346;2023-04-05T12:03:36;102673.78;;;6.17;87.13
66021;BME280;52789;59.980;30.346;2023-04-05T12:06:02;102665.84;;;6.02;88.20
66021;BME280;52789;59.980;30.346;2023-04-05T12:08:38;102671.91;;;6.04;88.79
66021;BME280;52789;59.980;30.346;2023-04-05T12:11:07;102674.13;;;5.96;88.70
66021;BME280;52789;59.980;30.346;2023-04-05T12:13:33;102670.91;;;5.90;89.29
66021;BME280;52789;59.980;30.346;2023-04-05T12:16:02;102677.28;;;6.02;89.04
66021;BME280;52789;59.980;30.346;2023-04-05T12:18:29;102664.81;;;6.04;89.24
66021;BME280;52789;59.980;30.346;2023-04-05T12:20:55;102678.81;;;6.06;88.02
66021;BME280;52789;59.980;30.346;2023-04-05T12:23:26;102671.50;;;6.11;88.70
66021;BME280;52789;59.980;30.346;2023-04-05T12:25:52;102667.31;;;6.07;88.20
66021;BME280;52789;59.980;30.346;2023-04-05T12:28:18;102664.50;;;5.95;89.24
66021;BME280;52789;59.980;30.346;2023-04-05T12:30:51;102666.78;;;6.01;88.55
66021;BME280;52789;59.980;30.346;2023-04-05T12:33:29;102663.09;;;5.87;88.44
66021;BME280;52789;59.980;30.346;2023-04-05T12:35:56;102664.47;;;5.79;88.85
66021;BME280;52789;59.980;30.346;2023-04-05T12:38:25;102666.75;;;5.69;89.46
66021;BME280;52789;59.980;30.346;2023-04-05T12:40:54;102672.91;;;5.54;90.05
66021;BME280;52789;59.980;30.346;2023-04-05T12:43:23;102677.47;;;5.35;90.95
66021;BME280;52789;59.980;30.346;2023-04-05T12:45:48;102672.00;;;5.38;90.62
66021;BME280;52789;59.980;30.346;2023-04-05T12:48:21;102665.38;;;5.46;91.06
66021;BME280;52789;59.980;30.346;2023-04-05T12:50:48;102676.75;;;5.64;90.37
66021;BME280;52789;59.980;30.346;2023-04-05T12:53:19;102669.13;;;5.42;90.60
66021;BME280;52789;59.980;30.346;2023-04-05T12:55:52;102673.31;;;5.13;91.81
66021;BME280;52789;59.980;30.346;2023-04-05T12:58:18;102672.34;;;4.98;93.34
66021;BME280;52789;59.980;30.346;2023-04-05T13:00:44;102665.03;;;4.86;92.79
66021;BME280;52789;59.980;30.346;2023-04-05T13:03:19;102672.81;;;4.72;94.13
66021;BME280;52789;59.980;30.346;2023-04-05T13:05:45;102664.59;;;4.78;94.04
66021;BME280;52789;59.980;30.346;2023-04-05T13:08:11;102662.88;;;4.94;93.63
66021;BME280;52789;59.980;30.346;2023-04-05T13:10:37;102662.03;;;4.94;93.68
66021;BME280;52789;59.980;30.346;2023-04-05T13:13:02;102662.13;;;5.08;93.20